Time;durP1;ratioP1;P1;durP2;ratioP2;P2;SDS_P1;SDS_P2;PMS_P1;PMS_P2;Temp;Humidity;BMP_temperature;BMP_pressure;BME280_temperature;BME280_humidity;BME280_pressure;Samples;Min_cycle;Max_cycle;Signal;HPM_P1;HPM_P2
2021/07/26 00:02:23;;;;;;;19.85;9.60;;;;;;;17.70;81.21;100744.13;4940985;28;20031;-83
2021/07/26 00:04:48;;;;;;;15.23;8.60;;;;;;;17.77;81.29;100739.44;4950397;28;20026;-82
2021/07/26 00:07:13;;;;;;;21.10;9.10;;;;;;;17.84;80.83;100730.41;4956289;29;20035;-83
2021/07/26 00:09:39;;;;;;;15.65;8.93;;;;;;;17.92;80.01;100747.28;4940180;29;20059;-82
2021/07/26 00:12:06;;;;;;;18.55;9.30;;;;;;;17.95;79.26;100746.00;4939119;28;20130;-82
2021/07/26 00:14:32;;;;;;;16.10;8.70;;;;;;;17.89;79.87;100739.56;4957820;28;20032;-82
2021/07/26 00:16:57;;;;;;;16.48;9.13;;;;;;;17.92;79.61;100735.56;4937552;29;20031;-83
2021/07/26 00:19:23;;;;;;;15.57;7.97;;;;;;;17.94;79.72;100728.00;4941226;28;20115;-83
2021/07/26 00:21:49;;;;;;;16.48;9.05;;;;;;;17.76;79.81;100698.88;4956232;29;20019;-83
2021/07/26 00:24:19;;;;;;;16.70;7.82;;;;;;;17.99;79.05;100731.72;4942220;29;20034;-82
2021/07/26 00:26:44;;;;;;;18.80;8.63;;;;;;;17.96;78.30;100729.44;4954052;29;20038;-83
2021/07/26 00:29:10;;;;;;;18.10;8.98;;;;;;;17.92;78.50;100744.56;4958810;28;20102;-81
2021/07/26 00:31:35;;;;;;;12.07;7.85;;;;;;;17.82;78.49;100744.22;4940627;29;20043;-82
2021/07/26 00:34:21;;;;;;;15.13;7.93;;;;;;;17.73;79.48;100737.38;4943924;29;20039;-82
2021/07/26 00:36:47;;;;;;;17.17;8.38;;;;;;;17.68;79.05;100726.34;4938333;29;20114;-82
2021/07/26 00:39:15;;;;;;;14.65;8.15;;;;;;;17.79;78.72;100750.13;4953189;28;20486;-81
2021/07/26 00:41:41;;;;;;;13.68;7.90;;;;;;;17.61;78.79;100718.25;4938062;29;20050;-82
2021/07/26 00:44:07;;;;;;;10.55;7.38;;;;;;;17.75;78.60;100743.41;4940522;29;20031;-83
2021/07/26 00:46:33;;;;;;;12.93;7.60;;;;;;;17.68;79.04;100734.50;4942111;29;20581;-82
2021/07/26 00:49:00;;;;;;;17.02;7.78;;;;;;;17.71;78.57;100740.31;4959007;28;20051;-82
2021/07/26 00:51:26;;;;;;;13.95;7.95;;;;;;;17.69;78.43;100741.59;4948744;28;20031;-83
2021/07/26 00:53:52;;;;;;;14.13;7.97;;;;;;;17.70;77.79;100735.09;4943600;28;20113;-81
2021/07/26 00:56:18;;;;;;;14.20;7.97;;;;;;;17.71;77.86;100736.78;4947173;28;20094;-83
2021/07/26 00:58:44;;;;;;;10.85;6.78;;;;;;;17.75;77.66;100737.97;4961902;29;20038;-83
2021/07/26 01:01:09;;;;;;;15.23;7.75;;;;;;;17.66;77.73;100725.75;4940286;28;20829;-84
2021/07/26 01:03:36;;;;;;;10.70;6.63;;;;;;;17.74;77.41;100739.06;4950528;28;20039;-83
2021/07/26 01:06:02;;;;;;;12.00;7.47;;;;;;;17.81;77.45;100739.84;4943820;28;20058;-82
2021/07/26 01:08:27;;;;;;;12.23;7.75;;;;;;;17.85;77.36;100743.78;4954273;28;20086;-82
2021/07/26 01:10:52;;;;;;;14.60;7.53;;;;;;;17.84;77.14;100739.41;4942117;28;20110;-82
2021/07/26 01:13:18;;;;;;;11.68;7.28;;;;;;;17.83;76.76;100739.63;4957452;28;20031;-82
2021/07/26 01:15:43;;;;;;;12.35;6.28;;;;;;;17.80;77.49;100744.44;4942434;29;20042;-82
2021/07/26 01:18:30;;;;;;;11.35;6.93;;;;;;;17.68;77.27;100739.94;4952229;29;20035;-82
2021/07/26 01:21:04;;;;;;;9.88;7.15;;;;;;;17.56;78.21;100734.41;4972905;28;20023;-82
2021/07/26 01:23:32;;;;;;;11.02;7.03;;;;;;;17.48;78.30;100735.50;4946004;28;20023;-83
2021/07/26 01:25:58;;;;;;;12.02;7.65;;;;;;;17.41;78.34;100736.59;4961121;28;20047;-82
2021/07/26 01:28:29;;;;;;;11.23;6.65;;;;;;;17.29;78.38;100720.19;4961406;28;20036;-82
2021/07/26 01:30:56;;;;;;;11.75;6.80;;;;;;;17.28;78.66;100732.97;4962291;29;20038;-83
2021/07/26 01:33:21;;;;;;;13.00;8.05;;;;;;;17.31;78.55;100740.66;4945906;28;20035;-82
2021/07/26 01:35:47;;;;;;;12.50;7.32;;;;;;;17.27;78.56;100739.44;4962647;29;20517;-82
2021/07/26 01:38:12;;;;;;;9.45;6.40;;;;;;;17.30;77.98;100735.44;4960568;28;20043;-82
2021/07/26 01:40:40;;;;;;;12.02;7.68;;;;;;;17.36;77.61;100742.72;4945602;28;20015;-82
2021/07/26 01:43:09;;;;;;;11.50;6.88;;;;;;;17.39;77.51;100744.16;4958195;28;20458;-84
2021/07/26 01:45:34;;;;;;;12.82;7.32;;;;;;;17.38;76.81;100734.34;4952900;29;20451;-84
2021/07/26 01:48:15;;;;;;;11.27;7.45;;;;;;;17.33;76.84;100729.56;4939876;28;20479;-84
2021/07/26 01:51:02;;;;;;;11.30;7.60;;;;;;;17.22;77.31;100736.53;4951390;29;20440;-81
2021/07/26 01:53:28;;;;;;;14.38;7.50;;;;;;;17.01;78.32;100734.19;4950992;28;20058;-81
2021/07/26 01:55:54;;;;;;;11.07;7.38;;;;;;;16.89;78.98;100734.06;4962576;28;20019;-83
2021/07/26 01:58:20;;;;;;;11.52;6.72;;;;;;;16.75;79.27;100725.13;4936888;29;20035;-82
2021/07/26 02:00:45;;;;;;;12.25;7.30;;;;;;;16.84;79.42;100739.31;4945736;29;20023;-83
2021/07/26 02:03:11;;;;;;;13.32;7.68;;;;;;;16.65;79.71;100728.31;4964839;28;20027;-82
2021/07/26 02:05:36;;;;;;;13.88;8.52;;;;;;;16.66;80.11;100737.28;4945435;29;20028;-83
2021/07/26 02:08:01;;;;;;;14.88;8.00;;;;;;;16.64;80.32;100734.75;4960146;28;20475;-83
2021/07/26 02:10:27;;;;;;;13.38;7.45;;;;;;;16.49;80.62;100720.66;4959827;28;20027;-83
2021/07/26 02:12:52;;;;;;;11.43;7.90;;;;;;;16.54;80.96;100736.28;4943049;29;20027;-82
2021/07/26 02:15:18;;;;;;;12.00;8.02;;;;;;;16.45;81.01;100727.56;4937215;29;20107;-82
2021/07/26 02:17:43;;;;;;;12.73;8.20;;;;;;;16.42;81.13;100723.38;4944164;29;20035;-82
2021/07/26 02:20:09;;;;;;;14.77;7.80;;;;;;;16.47;80.91;100734.44;4942908;28;20030;-83
2021/07/26 02:22:34;;;;;;;15.43;8.43;;;;;;;16.55;81.02;100749.66;4943463;28;20039;-82
2021/07/26 02:25:00;;;;;;;16.25;8.02;;;;;;;16.46;80.72;100737.38;4960230;29;20027;-82
2021/07/26 02:27:25;;;;;;;13.40;8.48;;;;;;;16.42;80.70;100734.25;4938603;28;20027;-82
2021/07/26 02:29:51;;;;;;;16.40;8.10;;;;;;;16.43;80.83;100737.78;4936625;29;20030;-84
2021/07/26 02:32:16;;;;;;;13.73;7.10;;;;;;;16.27;81.69;100733.66;4936322;29;20027;-82
2021/07/26 02:34:42;;;;;;;12.50;8.75;;;;;;;16.21;82.11;100740.78;4937139;29;20545;-84
2021/07/26 02:37:07;;;;;;;11.93;7.70;;;;;;;16.15;81.93;100730.78;4953678;28;20027;-82
2021/07/26 02:39:33;;;;;;;14.52;7.75;;;;;;;16.13;82.18;100715.78;4937731;29;20443;-83
2021/07/26 02:41:58;;;;;;;16.27;8.50;;;;;;;16.20;82.07;100722.84;4948231;28;20075;-81
2021/07/26 02:44:24;;;;;;;16.45;8.13;;;;;;;16.21;81.85;100729.09;4936796;29;20039;-83
2021/07/26 02:46:49;;;;;;;15.48;7.85;;;;;;;16.18;81.77;100734.97;4953156;28;20059;-80
2021/07/26 02:49:15;;;;;;;11.63;8.10;;;;;;;16.13;81.75;100724.75;4936125;28;20027;-82
2021/07/26 02:51:40;;;;;;;16.70;9.43;;;;;;;16.06;81.80;100715.78;4935933;29;20033;-82
2021/07/26 02:54:06;;;;;;;15.23;7.78;;;;;;;16.14;81.85;100721.00;4938117;29;20027;-84
2021/07/26 02:56:31;;;;;;;12.13;8.40;;;;;;;16.03;82.14;100714.34;4942820;28;20035;-82
2021/07/26 02:58:57;;;;;;;14.43;8.20;;;;;;;16.07;82.24;100717.47;4942797;29;20031;-83
2021/07/26 03:01:22;;;;;;;14.20;8.45;;;;;;;16.17;81.73;100723.28;4962251;28;20026;-82
2021/07/26 03:03:47;;;;;;;16.13;8.73;;;;;;;16.25;80.61;100733.06;4940950;29;20019;-82
2021/07/26 03:06:17;;;;;;;16.38;8.60;;;;;;;16.27;80.10;100725.53;4955014;28;20087;-82
2021/07/26 03:08:43;;;;;;;13.88;8.25;;;;;;;16.26;80.14;100730.13;4960701;28;20038;-83
2021/07/26 03:11:11;;;;;;;17.63;8.35;;;;;;;16.21;80.01;100721.78;4974005;28;20027;-82
2021/07/26 03:13:38;;;;;;;15.68;8.40;;;;;;;16.20;80.05;100716.59;4945191;28;20497;-82
2021/07/26 03:16:10;;;;;;;12.73;8.02;;;;;;;16.17;79.74;100726.00;4955429;28;20034;-82
2021/07/26 03:18:36;;;;;;;12.73;8.40;;;;;;;16.16;79.93;100734.34;4960654;29;20027;-82
2021/07/26 03:21:03;;;;;;;14.65;8.77;;;;;;;16.09;79.65;100723.53;4943872;28;20070;-81
2021/07/26 03:23:28;;;;;;;12.75;8.45;;;;;;;16.09;80.20;100725.38;4959257;29;20127;-82
2021/07/26 03:25:54;;;;;;;16.90;9.10;;;;;;;16.03;79.64;100727.06;4959984;29;20083;-83
2021/07/26 03:28:19;;;;;;;14.63;8.35;;;;;;;16.02;79.88;100742.50;4943993;28;20126;-83
2021/07/26 03:30:45;;;;;;;15.63;8.93;;;;;;;15.92;80.58;100730.44;4958923;28;20039;-82
2021/07/26 03:33:11;;;;;;;14.27;8.35;;;;;;;15.96;81.09;100737.13;4958130;28;20398;-82
2021/07/26 03:35:37;;;;;;;16.48;9.30;;;;;;;15.91;81.55;100739.63;4945349;28;20761;-82
2021/07/26 03:38:02;;;;;;;17.88;9.43;;;;;;;15.89;81.87;100737.13;4943610;28;20099;-82
2021/07/26 03:40:28;;;;;;;15.18;8.93;;;;;;;15.99;82.07;100745.66;4957640;29;20033;-82
2021/07/26 03:42:53;;;;;;;13.68;8.13;;;;;;;16.01;81.57;100734.59;4942333;28;20023;-82
2021/07/26 03:45:21;;;;;;;17.92;8.88;;;;;;;15.99;82.33;100734.81;4967185;28;20036;-82
2021/07/26 03:47:47;;;;;;;17.75;9.20;;;;;;;15.98;82.68;100729.56;4949997;29;20513;-82
2021/07/26 03:50:13;;;;;;;15.63;8.80;;;;;;;15.99;82.34;100731.25;4952496;28;20114;-82
2021/07/26 03:52:50;;;;;;;21.17;11.05;;;;;;;15.95;82.80;100740.84;4935966;28;20024;-82
2021/07/26 03:55:37;;;;;;;16.73;9.93;;;;;;;16.02;82.95;100738.97;4941841;29;20111;-82
2021/07/26 03:58:03;;;;;;;16.90;9.20;;;;;;;16.07;83.01;100739.16;4939306;28;20082;-83
2021/07/26 04:00:30;;;;;;;24.17;10.15;;;;;;;16.16;82.84;100751.44;4941642;29;20023;-82
2021/07/26 04:03:11;;;;;;;19.38;9.98;;;;;;;16.21;82.31;100743.50;4958493;29;20055;-82
2021/07/26 04:05:39;;;;;;;17.02;9.38;;;;;;;16.22;82.44;100731.63;4957827;29;20046;-82
2021/07/26 04:08:06;;;;;;;16.27;9.23;;;;;;;16.23;82.40;100733.28;4942418;28;20383;-82
2021/07/26 04:10:33;;;;;;;15.65;9.13;;;;;;;16.05;82.58;100723.09;4944059;29;20038;-83
2021/07/26 04:12:58;;;;;;;17.50;9.50;;;;;;;16.08;82.81;100740.00;4955093;28;20033;-83
2021/07/26 04:15:24;;;;;;;16.88;9.27;;;;;;;15.97;83.23;100733.34;4950752;29;20114;-82
2021/07/26 04:17:49;;;;;;;18.13;10.13;;;;;;;15.95;83.32;100735.44;4937029;29;20123;-82
2021/07/26 04:20:15;;;;;;;18.48;9.52;;;;;;;15.90;83.80;100738.75;4950358;28;20033;-82
2021/07/26 04:22:40;;;;;;;15.80;9.65;;;;;;;15.95;83.48;100738.13;4935559;28;20394;-81
2021/07/26 04:25:06;;;;;;;18.38;8.98;;;;;;;15.95;83.79;100738.13;4935926;29;20023;-84
2021/07/26 04:27:35;;;;;;;20.23;9.82;;;;;;;15.94;83.72;100741.91;4951470;29;20389;-81
2021/07/26 04:30:01;;;;;;;21.15;9.30;;;;;;;15.95;83.92;100743.56;4935014;28;20023;-81
2021/07/26 04:32:27;;;;;;;18.95;9.30;;;;;;;16.00;84.00;100749.19;4928457;28;20038;-82
2021/07/26 04:34:52;;;;;;;18.73;9.68;;;;;;;16.00;83.52;100733.75;4952775;28;20025;-82
2021/07/26 04:37:17;;;;;;;16.42;10.10;;;;;;;16.05;83.46;100747.50;4951499;29;20032;-82
2021/07/26 04:39:43;;;;;;;17.10;9.27;;;;;;;16.03;83.40;100737.91;4947110;29;20102;-82
2021/07/26 04:42:08;;;;;;;17.17;9.98;;;;;;;16.05;83.39;100730.41;4934662;28;20019;-82
2021/07/26 04:44:36;;;;;;;18.55;9.85;;;;;;;16.03;83.22;100722.47;4934354;28;20194;-82
2021/07/26 04:47:03;;;;;;;15.50;9.50;;;;;;;16.06;83.73;100732.06;4950726;29;20043;-81
2021/07/26 04:49:28;;;;;;;21.38;10.60;;;;;;;16.02;83.46;100718.09;4934787;28;20462;-82
2021/07/26 04:51:54;;;;;;;17.05;9.25;;;;;;;16.04;83.21;100721.44;4950918;29;20031;-83
2021/07/26 04:54:19;;;;;;;16.73;9.25;;;;;;;15.97;83.29;100727.91;4928566;28;20027;-82
2021/07/26 04:56:44;;;;;;;17.60;9.02;;;;;;;15.98;83.74;100729.56;4953744;28;20019;-81
2021/07/26 04:59:10;;;;;;;17.45;9.25;;;;;;;15.93;84.06;100722.09;4952147;28;20079;-82
2021/07/26 05:01:35;;;;;;;18.33;10.05;;;;;;;16.02;84.41;100726.25;4949927;29;20019;-81
2021/07/26 05:04:01;;;;;;;19.05;9.73;;;;;;;16.08;83.63;100721.84;4951429;28;20027;-82
2021/07/26 05:06:26;;;;;;;15.93;9.07;;;;;;;16.13;83.35;100732.88;4950242;29;20031;-82
2021/07/26 05:08:52;;;;;;;15.98;9.15;;;;;;;16.15;83.39;100728.09;4950926;29;20550;-82
2021/07/26 05:11:23;;;;;;;19.15;9.45;;;;;;;16.20;83.25;100725.56;4950936;29;20026;-82
2021/07/26 05:13:49;;;;;;;17.27;8.32;;;;;;;16.24;83.21;100732.22;4953559;28;20038;-82
2021/07/26 05:16:14;;;;;;;19.83;9.23;;;;;;;16.26;82.95;100713.84;4950247;29;20035;-81
2021/07/26 05:18:40;;;;;;;16.33;9.07;;;;;;;16.27;82.71;100712.81;4935166;29;20065;-82
2021/07/26 05:21:05;;;;;;;14.60;8.68;;;;;;;16.36;82.65;100726.97;4950435;29;20019;-83
2021/07/26 05:23:30;;;;;;;15.88;9.40;;;;;;;16.40;82.51;100719.22;4935150;28;20053;-82
2021/07/26 05:25:56;;;;;;;14.07;8.90;;;;;;;16.37;82.36;100716.94;4926139;28;20394;-82
2021/07/26 05:28:21;;;;;;;20.15;8.88;;;;;;;16.42;82.73;100726.09;4951020;29;20054;-82
2021/07/26 05:30:47;;;;;;;19.92;9.50;;;;;;;16.46;82.44;100732.78;4950882;28;20027;-83
2021/07/26 05:33:13;;;;;;;17.58;9.90;;;;;;;16.53;81.89;100718.34;4933491;29;20034;-82
2021/07/26 05:35:40;;;;;;;14.55;9.07;;;;;;;16.57;81.58;100722.28;4953798;29;20027;-82
2021/07/26 05:38:05;;;;;;;15.57;9.05;;;;;;;16.59;81.39;100726.47;4938899;29;20063;-81
2021/07/26 05:40:31;;;;;;;17.38;8.77;;;;;;;16.68;81.40;100729.75;4947402;28;20945;-82
2021/07/26 05:42:57;;;;;;;17.98;9.57;;;;;;;16.61;81.58;100724.34;4969884;28;20023;-83
2021/07/26 05:45:22;;;;;;;14.85;8.63;;;;;;;16.67;81.24;100728.94;4953351;29;20062;-81
2021/07/26 05:47:50;;;;;;;15.82;9.52;;;;;;;16.65;81.44;100730.19;4931397;29;20098;-79
2021/07/26 05:50:16;;;;;;;19.17;9.32;;;;;;;16.63;81.77;100733.09;4955003;29;20508;-83
2021/07/26 05:52:41;;;;;;;16.25;9.57;;;;;;;16.45;81.88;100703.97;4938868;29;20486;-82
2021/07/26 05:55:07;;;;;;;16.80;8.88;;;;;;;16.55;81.92;100718.97;4939405;29;20046;-83
2021/07/26 05:57:36;;;;;;;16.02;9.77;;;;;;;16.60;81.52;100719.16;4953456;28;20055;-84
2021/07/26 06:00:09;;;;;;;16.60;8.80;;;;;;;16.66;81.44;100720.97;4971067;28;20039;-84
2021/07/26 06:02:34;;;;;;;17.00;9.38;;;;;;;16.60;81.29;100719.97;4942161;29;20023;-81
2021/07/26 06:04:59;;;;;;;15.35;9.10;;;;;;;16.57;81.46;100717.69;4951918;28;20031;-84
2021/07/26 06:07:25;;;;;;;17.70;9.25;;;;;;;16.59;81.19;100712.03;4936266;28;20055;-80
2021/07/26 06:09:50;;;;;;;16.40;9.23;;;;;;;16.67;81.27;100718.06;4955156;29;20023;-81
2021/07/26 06:12:16;;;;;;;15.95;9.50;;;;;;;16.44;81.47;100685.19;4942736;28;20122;-83
2021/07/26 06:14:41;;;;;;;17.35;9.50;;;;;;;16.71;80.96;100727.44;4941207;28;20409;-80
2021/07/26 06:17:07;;;;;;;17.95;9.40;;;;;;;16.75;80.99;100718.84;4950770;28;20035;-78
2021/07/26 06:19:33;;;;;;;18.33;9.40;;;;;;;16.74;81.18;100718.00;4946114;28;20467;-80
2021/07/26 06:21:59;;;;;;;15.55;8.95;;;;;;;16.72;81.67;100720.09;4951177;28;20027;-79
2021/07/26 06:24:25;;;;;;;17.73;9.52;;;;;;;16.62;82.05;100717.88;4951419;28;20089;-78
2021/07/26 06:26:55;;;;;;;18.10;9.93;;;;;;;16.78;81.79;100726.63;4955342;28;20051;-79
2021/07/26 06:29:22;;;;;;;18.20;9.23;;;;;;;16.89;81.14;100728.63;4933185;28;20041;-78
2021/07/26 06:31:48;;;;;;;19.33;9.73;;;;;;;16.87;80.84;100726.13;4954819;28;20202;-80
2021/07/26 06:34:14;;;;;;;19.45;10.65;;;;;;;16.84;80.66;100714.88;4956344;28;20114;-79
2021/07/26 06:36:40;;;;;;;16.38;10.18;;;;;;;16.89;80.54;100715.88;4953853;28;20058;-78
2021/07/26 06:39:06;;;;;;;15.82;9.23;;;;;;;16.88;80.60;100700.63;4956778;28;20518;-78
2021/07/26 06:41:31;;;;;;;15.32;9.40;;;;;;;16.96;80.65;100710.38;4954799;28;20026;-78
2021/07/26 06:43:57;;;;;;;19.40;10.75;;;;;;;16.89;80.53;100709.63;4940172;29;20035;-78
2021/07/26 06:46:23;;;;;;;18.42;11.40;;;;;;;16.83;81.14;100711.31;4952752;29;20039;-78
2021/07/26 06:48:48;;;;;;;21.55;10.45;;;;;;;16.79;81.17;100715.50;4952638;28;20038;-81
2021/07/26 06:51:14;;;;;;;16.25;9.40;;;;;;;16.79;81.80;100703.81;4952086;28;20095;-79
2021/07/26 06:53:39;;;;;;;22.60;11.63;;;;;;;16.81;81.58;100708.00;4956709;29;20023;-79
2021/07/26 06:56:06;;;;;;;26.88;10.85;;;;;;;16.82;82.18;100703.38;4956786;28;20533;-81
2021/07/26 06:58:32;;;;;;;17.67;9.38;;;;;;;16.80;82.59;100721.78;4957180;28;20019;-78
2021/07/26 07:01:02;;;;;;;20.60;10.52;;;;;;;16.76;82.78;100713.22;4952999;28;20087;-80
2021/07/26 07:03:28;;;;;;;20.98;11.60;;;;;;;16.64;82.80;100704.06;4955685;28;20061;-82
2021/07/26 07:06:09;;;;;;;27.38;11.52;;;;;;;16.67;83.38;100712.63;4938790;28;20094;-79
2021/07/26 07:08:35;;;;;;;18.85;10.95;;;;;;;16.74;83.45;100717.19;4940144;29;20035;-79
2021/07/26 07:11:05;;;;;;;27.35;12.32;;;;;;;16.62;83.70;100712.44;4942339;29;20055;-79
2021/07/26 07:13:34;;;;;;;22.58;12.07;;;;;;;16.57;84.11;100703.28;4937475;29;20446;-80
2021/07/26 07:16:00;;;;;;;21.38;10.93;;;;;;;16.57;84.66;100695.16;4954313;28;20066;-80
2021/07/26 07:18:25;;;;;;;22.63;11.43;;;;;;;16.51;84.47;100679.72;4955330;28;20054;-80
2021/07/26 07:20:51;;;;;;;27.10;12.10;;;;;;;16.50;84.67;100678.88;4954645;29;20438;-80
2021/07/26 07:23:16;;;;;;;19.20;11.75;;;;;;;16.63;85.21;100684.25;4952362;29;20455;-81
2021/07/26 07:25:41;;;;;;;23.73;10.75;;;;;;;16.66;85.04;100675.66;4949133;29;20034;-81
2021/07/26 07:28:07;;;;;;;20.13;10.05;;;;;;;16.74;84.50;100684.59;4932191;28;20035;-79
2021/07/26 07:30:32;;;;;;;20.98;11.40;;;;;;;16.65;84.65;100690.28;4946678;29;20059;-79
2021/07/26 07:33:01;;;;;;;22.92;11.18;;;;;;;16.66;84.85;100696.56;4950164;28;20043;-80
2021/07/26 07:35:27;;;;;;;26.55;13.02;;;;;;;16.55;85.22;100694.53;4947804;28;20027;-80
2021/07/26 07:37:53;;;;;;;26.38;12.95;;;;;;;16.48;85.88;100691.84;4950467;28;20058;-81
2021/07/26 07:40:18;;;;;;;25.40;13.02;;;;;;;16.44;86.01;100701.47;4933997;28;20118;-81
2021/07/26 07:42:44;;;;;;;23.65;12.18;;;;;;;16.45;86.35;100703.97;4950709;28;20027;-80
2021/07/26 07:45:10;;;;;;;21.63;11.50;;;;;;;16.44;86.56;100702.31;4934180;28;20027;-79
2021/07/26 07:47:36;;;;;;;22.58;12.45;;;;;;;16.45;86.72;100695.81;4934554;28;20661;-81
2021/07/26 07:50:03;;;;;;;27.15;12.63;;;;;;;16.43;86.86;100683.50;4948007;28;20567;-81
2021/07/26 07:52:28;;;;;;;26.75;13.55;;;;;;;16.54;86.64;100693.72;4931443;28;20551;-80
2021/07/26 07:54:54;;;;;;;19.27;12.32;;;;;;;16.52;86.91;100693.09;4946877;28;20031;-81
2021/07/26 07:57:21;;;;;;;21.13;12.15;;;;;;;16.41;86.97;100669.34;4944743;28;20038;-81
2021/07/26 07:59:47;;;;;;;26.23;12.75;;;;;;;16.74;86.97;100701.72;4951154;28;20031;-80
2021/07/26 08:02:13;;;;;;;19.27;11.80;;;;;;;16.91;86.44;100702.09;4948780;28;20031;-80
2021/07/26 08:04:40;;;;;;;20.92;11.55;;;;;;;17.06;85.94;100705.31;4946853;28;20106;-81
2021/07/26 08:07:06;;;;;;;21.35;12.40;;;;;;;17.11;85.44;100700.03;4932600;29;20043;-79
2021/07/26 08:09:32;;;;;;;21.27;11.23;;;;;;;17.16;85.11;100698.56;4946205;29;20042;-80
2021/07/26 08:11:57;;;;;;;18.40;10.45;;;;;;;17.31;84.53;100713.50;4933991;28;20023;-80
2021/07/26 08:14:23;;;;;;;18.50;10.73;;;;;;;17.40;84.12;100702.34;4954027;28;20035;-82
2021/07/26 08:16:48;;;;;;;19.60;11.27;;;;;;;17.47;83.51;100698.50;4948169;28;20042;-81
2021/07/26 08:19:14;;;;;;;18.58;11.02;;;;;;;17.58;82.89;100710.53;4934505;29;20023;-81
2021/07/26 08:21:40;;;;;;;18.67;12.15;;;;;;;17.73;81.87;100704.72;4934057;28;20023;-83
2021/07/26 08:24:05;;;;;;;14.88;9.40;;;;;;;17.86;81.05;100701.94;4935994;29;20082;-82
2021/07/26 08:26:31;;;;;;;19.98;9.82;;;;;;;18.02;80.95;100709.50;4952387;29;20127;-83
2021/07/26 08:28:56;;;;;;;15.27;9.23;;;;;;;18.12;80.22;100703.50;4946701;29;20051;-83
2021/07/26 08:31:22;;;;;;;12.23;8.32;;;;;;;18.24;80.01;100703.59;4934569;28;20019;-82
2021/07/26 08:33:47;;;;;;;15.40;9.45;;;;;;;18.28;79.25;100701.25;4932418;29;20053;-83
2021/07/26 08:36:13;;;;;;;15.15;9.95;;;;;;;18.26;79.41;100679.72;4947002;29;20114;-83
2021/07/26 08:38:38;;;;;;;16.25;10.07;;;;;;;18.45;79.21;100694.13;4950664;29;20590;-83
2021/07/26 08:41:04;;;;;;;16.02;9.23;;;;;;;18.52;78.85;100685.84;4951673;28;20462;-82
2021/07/26 08:43:29;;;;;;;18.23;9.23;;;;;;;18.55;78.71;100679.94;4934802;28;20442;-82
2021/07/26 08:45:55;;;;;;;16.25;9.65;;;;;;;18.65;78.13;100693.84;4951826;29;20022;-82
2021/07/26 08:48:24;;;;;;;15.30;9.48;;;;;;;18.70;77.90;100685.81;4950445;28;20454;-83
2021/07/26 08:50:49;;;;;;;16.45;9.38;;;;;;;18.76;77.32;100679.50;4930407;29;20112;-82
2021/07/26 08:53:18;;;;;;;14.52;8.55;;;;;;;18.79;77.19;100686.38;4932777;28;20241;-83
2021/07/26 08:55:44;;;;;;;15.80;9.88;;;;;;;18.73;77.28;100684.53;4942180;28;20121;-82
2021/07/26 08:58:09;;;;;;;14.75;9.25;;;;;;;18.60;77.54;100677.38;4945196;29;20431;-81
2021/07/26 09:00:35;;;;;;;13.80;9.52;;;;;;;18.48;78.11;100680.06;4949023;29;20545;-82
2021/07/26 09:03:03;;;;;;;16.50;10.07;;;;;;;18.34;78.95;100681.28;4934707;29;20024;-81
2021/07/26 09:05:29;;;;;;;15.10;10.18;;;;;;;18.21;79.11;100679.56;4950243;29;20031;-81
2021/07/26 09:07:54;;;;;;;17.70;10.50;;;;;;;18.19;79.35;100681.69;4954686;28;20022;-81
2021/07/26 09:10:22;;;;;;;16.40;9.45;;;;;;;18.20;79.47;100675.16;4938612;29;20094;-82
2021/07/26 09:12:57;;;;;;;17.38;9.80;;;;;;;18.13;79.92;100671.72;4938524;29;20023;-81
2021/07/26 09:15:37;;;;;;;21.55;10.63;;;;;;;18.16;80.18;100666.63;4938622;29;20033;-81
2021/07/26 09:18:07;;;;;;;17.77;9.48;;;;;;;18.21;80.10;100671.41;4938825;28;20039;-81
2021/07/26 09:20:34;;;;;;;20.05;11.52;;;;;;;18.25;80.31;100672.59;4934700;28;20051;-81
2021/07/26 09:23:18;;;;;;;14.65;9.60;;;;;;;18.31;80.67;100679.00;4955166;29;20042;-81
2021/07/26 09:25:45;;;;;;;19.80;10.23;;;;;;;18.25;80.46;100686.19;4948142;29;20035;-79
2021/07/26 09:28:14;;;;;;;18.42;10.60;;;;;;;18.27;80.92;100689.53;4956127;29;20031;-82
2021/07/26 09:30:46;;;;;;;16.48;9.68;;;;;;;18.29;80.82;100678.44;4967846;28;20027;-83
2021/07/26 09:33:28;;;;;;;16.35;9.45;;;;;;;18.41;80.50;100666.50;4951519;29;20058;-83
2021/07/26 09:36:12;;;;;;;19.95;9.90;;;;;;;18.62;80.33;100675.25;4955790;29;20078;-83
2021/07/26 09:38:56;;;;;;;15.60;8.43;;;;;;;18.84;79.76;100671.00;4957113;28;20095;-83
2021/07/26 09:41:43;;;;;;;16.33;9.50;;;;;;;19.18;78.52;100674.00;4954985;28;20106;-83
2021/07/26 09:44:09;;;;;;;16.83;8.57;;;;;;;19.36;77.16;100669.53;4945278;29;20035;-80
2021/07/26 09:46:38;;;;;;;17.02;8.38;;;;;;;19.52;76.75;100669.63;4938691;29;20030;-83
2021/07/26 09:49:12;;;;;;;17.00;9.00;;;;;;;19.60;76.12;100660.28;4953440;29;20027;-82
2021/07/26 09:51:38;;;;;;;20.83;9.63;;;;;;;19.67;75.51;100662.91;4939123;29;20381;-82
2021/07/26 09:54:04;;;;;;;16.17;8.70;;;;;;;19.71;76.03;100662.22;4951699;29;20083;-79
2021/07/26 09:56:32;;;;;;;16.55;9.98;;;;;;;19.76;75.42;100659.56;4936579;29;20062;-83
2021/07/26 09:58:57;;;;;;;16.90;9.90;;;;;;;19.67;74.68;100655.56;4954008;29;20027;-78
2021/07/26 10:01:23;;;;;;;16.42;9.88;;;;;;;19.70;74.52;100657.81;4950379;29;20127;-78
2021/07/26 10:03:51;;;;;;;15.93;8.52;;;;;;;19.69;74.71;100663.53;4953729;29;20019;-78
2021/07/26 10:06:18;;;;;;;15.68;8.52;;;;;;;19.79;74.17;100649.25;4954225;29;20462;-78
2021/07/26 10:08:44;;;;;;;15.25;8.80;;;;;;;20.01;73.26;100655.75;4966775;28;20549;-78
2021/07/26 10:11:09;;;;;;;13.20;8.65;;;;;;;20.27;72.71;100648.91;4929067;29;20538;-77
2021/07/26 10:13:38;;;;;;;16.15;8.82;;;;;;;20.46;71.89;100659.66;4946586;29;20042;-78
2021/07/26 10:16:04;;;;;;;14.18;9.35;;;;;;;20.47;71.21;100653.09;4949695;29;20475;-78
2021/07/26 10:18:29;;;;;;;14.45;8.57;;;;;;;20.59;71.00;100653.94;4932397;29;20083;-78
2021/07/26 10:21:03;;;;;;;13.88;8.27;;;;;;;20.69;70.67;100661.47;4952034;29;20031;-78
2021/07/26 10:23:35;;;;;;;13.48;8.00;;;;;;;20.82;70.45;100655.69;4949848;28;20031;-78
2021/07/26 10:26:04;;;;;;;15.27;9.15;;;;;;;20.96;70.24;100656.22;4969424;28;20027;-78
2021/07/26 10:28:32;;;;;;;14.30;8.20;;;;;;;21.02;69.61;100652.50;4952436;28;20031;-78
2021/07/26 10:30:58;;;;;;;13.98;7.55;;;;;;;20.99;69.25;100656.56;4951798;29;20023;-77
2021/07/26 10:33:24;;;;;;;12.38;7.78;;;;;;;20.95;69.25;100652.63;4950971;29;20039;-77
2021/07/26 10:35:49;;;;;;;12.13;7.22;;;;;;;20.96;69.51;100648.84;4975092;28;20027;-76
2021/07/26 10:38:44;;;;;;;13.73;7.28;;;;;;;20.99;68.92;100651.09;4950401;28;20038;-77
2021/07/26 10:41:10;;;;;;;17.55;7.65;;;;;;;20.91;68.88;100647.94;4945032;29;20391;-78
2021/07/26 10:43:59;;;;;;;13.00;8.00;;;;;;;20.90;69.22;100657.19;4933656;29;20039;-76
2021/07/26 10:46:25;;;;;;;13.05;8.85;;;;;;;20.84;69.24;100648.09;4951657;29;20023;-79
2021/07/26 10:48:52;;;;;;;12.77;7.10;;;;;;;20.83;69.54;100654.63;4953438;28;20094;-79
2021/07/26 10:51:37;;;;;;;11.10;7.00;;;;;;;20.74;69.36;100648.72;4949193;29;20034;-77
2021/07/26 10:54:04;;;;;;;12.02;7.32;;;;;;;20.57;69.88;100648.69;4950538;28;20050;-79
2021/07/26 10:57:01;;;;;;;11.25;6.90;;;;;;;20.42;70.62;100651.94;4952305;29;20027;-79
2021/07/26 10:59:28;;;;;;;12.15;6.93;;;;;;;20.32;70.98;100651.75;4944831;29;20027;-78
2021/07/26 11:02:03;;;;;;;12.40;6.78;;;;;;;20.23;71.37;100649.63;4932821;28;20110;-79
2021/07/26 11:04:39;;;;;;;11.20;6.97;;;;;;;20.20;71.34;100648.22;4940636;28;20123;-78
2021/07/26 11:07:06;;;;;;;9.85;6.25;;;;;;;20.29;71.42;100651.38;4963137;28;20062;-78
2021/07/26 11:09:42;;;;;;;10.77;6.30;;;;;;;20.28;70.83;100655.22;4948696;29;20054;-78
2021/07/26 11:12:07;;;;;;;13.25;6.85;;;;;;;20.20;71.18;100659.16;4948479;29;20074;-79
2021/07/26 11:14:33;;;;;;;10.63;6.80;;;;;;;20.01;71.54;100658.47;4948371;29;20043;-77
2021/07/26 11:17:11;;;;;;;12.20;6.32;;;;;;;19.91;72.33;100650.91;4943677;29;20091;-77
2021/07/26 11:19:46;;;;;;;11.13;6.30;;;;;;;19.94;72.19;100655.03;4946471;28;20038;-78